createdAt,value
2024-03-07T00:00:34.165Z,22.30
2024-03-07T00:01:36.291Z,22.20
2024-03-07T00:02:41.037Z,22.13
2024-03-07T00:03:43.211Z,24.20
2024-03-07T00:04:48.014Z,25.40
2024-03-07T00:05:50.304Z,23.42
2024-03-07T00:06:52.575Z,25.05
2024-03-07T00:07:59.627Z,22.33
2024-03-07T00:09:01.867Z,23.20
2024-03-07T00:10:10.923Z,23.15
2024-03-07T00:11:13.267Z,22.67
2024-03-07T00:12:18.203Z,23.83
2024-03-07T00:13:22.525Z,20.85
2024-03-07T00:14:28.824Z,23.85
2024-03-07T00:15:31.530Z,24.58
2024-03-07T00:16:36.642Z,23.92
2024-03-07T00:17:42.368Z,23.88
2024-03-07T00:18:47.361Z,27.30
2024-03-07T00:19:49.975Z,27.13
2024-03-07T00:20:56.131Z,28.02
2024-03-07T00:21:58.786Z,22.85
2024-03-07T00:23:04.261Z,21.52
2024-03-07T00:24:06.914Z,23.90
2024-03-07T00:25:16.215Z,22.73
2024-03-07T00:26:18.429Z,21.08
2024-03-07T00:27:22.140Z,23.17
2024-03-07T00:28:30.514Z,23.88
2024-03-07T00:29:33.097Z,24.90
2024-03-07T00:30:38.964Z,24.40
2024-03-07T00:31:41.081Z,30.80
2024-03-07T00:32:46.193Z,25.13
2024-03-07T00:33:59.764Z,25.88
2024-03-07T00:35:13.100Z,23.02
2024-03-07T00:36:15.270Z,24.92
2024-03-07T00:37:20.682Z,23.65
2024-03-07T00:38:22.892Z,23.73
2024-03-07T00:39:27.983Z,25.95
2024-03-07T00:40:33.860Z,23.90
2024-03-07T00:41:38.647Z,24.05
2024-03-07T00:42:40.778Z,24.67
2024-03-07T00:43:45.947Z,24.38
2024-03-07T00:44:48.156Z,28.20
2024-03-07T00:45:53.522Z,28.05
2024-03-07T00:46:55.660Z,27.58
2024-03-07T00:48:00.526Z,24.77
2024-03-07T00:49:02.849Z,26.48
2024-03-07T00:50:10.234Z,25.63
2024-03-07T00:51:12.563Z,23.17
2024-03-07T00:52:17.292Z,24.08
2024-03-07T00:53:19.444Z,24.83
2024-03-07T00:54:21.948Z,22.40
2024-03-07T00:55:26.772Z,24.08
2024-03-07T00:56:31.489Z,25.73
2024-03-07T00:57:36.227Z,22.20
2024-03-07T00:58:38.381Z,21.33
2024-03-07T00:59:43.227Z,23.73
2024-03-07T01:00:45.404Z,26.05
2024-03-07T01:01:50.404Z,28.05
2024-03-07T01:02:55.319Z,27.13
2024-03-07T01:03:57.711Z,21.80
2024-03-07T01:05:02.891Z,22.20
2024-03-07T01:06:05.520Z,27.10
2024-03-07T01:07:10.203Z,21.73
2024-03-07T01:08:15.462Z,24.75
2024-03-07T01:09:20.397Z,26.63
2024-03-07T01:10:22.584Z,20.92
2024-03-07T01:11:27.507Z,20.15
2024-03-07T01:12:35.655Z,24.65
2024-03-07T01:13:41.132Z,22.92
2024-03-07T01:14:43.270Z,25.92
2024-03-07T01:15:48.159Z,27.67
2024-03-07T01:16:50.477Z,25.33
2024-03-07T01:17:55.550Z,27.00
2024-03-07T01:18:57.707Z,26.30
2024-03-07T01:20:04.377Z,22.25
2024-03-07T01:21:07.448Z,27.60
2024-03-07T01:22:12.190Z,23.20
2024-03-07T01:23:14.307Z,25.23
2024-03-07T01:24:21.877Z,23.73
2024-03-07T01:25:24.449Z,23.92
2024-03-07T01:26:29.175Z,24.08
2024-03-07T01:27:33.984Z,23.67
2024-03-07T01:28:39.172Z,26.23
2024-03-07T01:29:42.729Z,27.30
2024-03-07T01:30:47.952Z,27.55
2024-03-07T01:31:50.472Z,30.05
2024-03-07T01:32:55.246Z,25.60
2024-03-07T01:33:57.546Z,29.30
2024-03-07T01:35:02.579Z,23.55
2024-03-07T01:36:06.421Z,24.63
2024-03-07T01:37:11.548Z,24.00
2024-03-07T01:38:14.819Z,25.27
2024-03-07T01:39:20.831Z,24.17
2024-03-07T01:40:23.229Z,25.80
2024-03-07T01:41:28.018Z,24.38
2024-03-07T01:42:30.244Z,24.65
2024-03-07T01:43:37.992Z,31.58
2024-03-07T01:44:42.011Z,29.27
2024-03-07T01:45:46.845Z,29.92
2024-03-07T01:46:51.251Z,29.80
2024-03-07T01:47:56.959Z,29.42
2024-03-07T01:49:00.162Z,30.50
2024-03-07T01:50:05.067Z,26.05
2024-03-07T01:51:07.778Z,26.98
2024-03-07T01:52:13.705Z,26.80
2024-03-07T01:53:15.945Z,31.92
2024-03-07T01:54:20.693Z,25.95
2024-03-07T01:55:23.763Z,27.25
2024-03-07T01:56:25.989Z,25.92
2024-03-07T01:57:30.962Z,28.00
2024-03-07T01:58:38.018Z,28.48
2024-03-07T01:59:43.808Z,25.63
2024-03-07T02:00:46.147Z,25.60
2024-03-07T02:01:51.097Z,27.50
2024-03-07T02:02:54.609Z,27.67
2024-03-07T02:03:59.585Z,27.25
2024-03-07T02:05:01.860Z,23.63
2024-03-07T02:06:07.268Z,24.83
2024-03-07T02:07:12.680Z,23.17
2024-03-07T02:08:18.130Z,24.05
2024-03-07T02:09:20.911Z,21.08
2024-03-07T02:10:25.628Z,22.23
2024-03-07T02:11:27.907Z,24.60
2024-03-07T02:12:33.616Z,24.45
2024-03-07T02:13:38.577Z,23.00
2024-03-07T02:14:43.307Z,24.30
2024-03-07T02:15:45.623Z,23.73
2024-03-07T02:16:50.428Z,26.30
2024-03-07T02:17:52.726Z,27.67
2024-03-07T02:18:58.809Z,26.90
2024-03-07T02:20:01.158Z,28.33
2024-03-07T02:21:13.044Z,25.80
2024-03-07T02:22:15.593Z,23.52
2024-03-07T02:23:20.388Z,28.95
2024-03-07T02:24:22.778Z,22.75
2024-03-07T02:25:28.257Z,29.20
2024-03-07T02:26:30.458Z,21.48
2024-03-07T02:27:35.264Z,23.13
2024-03-07T02:28:37.452Z,23.20
2024-03-07T02:29:42.202Z,22.42
2024-03-07T02:30:47.060Z,29.05
2024-03-07T02:31:53.030Z,25.95
2024-03-07T02:32:56.928Z,26.65
2024-03-07T02:34:02.483Z,28.77
2024-03-07T02:35:05.412Z,20.77
2024-03-07T02:36:12.908Z,21.58
2024-03-07T02:37:15.098Z,22.27
2024-03-07T02:38:20.637Z,26.88
2024-03-07T02:39:23.055Z,24.25
2024-03-07T02:40:27.855Z,27.77
2024-03-07T02:41:30.005Z,26.10
2024-03-07T02:42:34.995Z,22.85
2024-03-07T02:43:39.632Z,24.80
2024-03-07T02:44:44.381Z,22.35
2024-03-07T02:45:46.652Z,22.98
2024-03-07T02:46:51.509Z,26.98
2024-03-07T02:47:55.700Z,26.23
2024-03-07T02:49:00.713Z,25.83
2024-03-07T02:50:02.924Z,27.42
2024-03-07T02:51:08.176Z,23.52
2024-03-07T02:52:12.893Z,22.77
2024-03-07T02:53:17.650Z,24.10
2024-03-07T02:54:21.813Z,32.90
2024-03-07T02:55:26.539Z,34.17
2024-03-07T02:56:28.831Z,27.55
2024-03-07T02:57:33.652Z,21.42
2024-03-07T02:58:35.781Z,22.77
2024-03-07T02:59:40.531Z,21.80
2024-03-07T03:00:42.662Z,20.65
2024-03-07T03:01:47.578Z,21.38
2024-03-07T03:02:50.681Z,23.83
2024-03-07T03:03:55.721Z,23.83
2024-03-07T03:04:57.947Z,23.38
2024-03-07T03:06:03.843Z,21.85
2024-03-07T03:07:06.609Z,20.95
2024-03-07T03:08:15.425Z,20.05
2024-03-07T03:09:19.119Z,19.65
2024-03-07T03:10:27.990Z,20.85
2024-03-07T03:11:31.269Z,28.02
2024-03-07T03:12:38.322Z,29.85
2024-03-07T03:13:40.869Z,20.77
2024-03-07T03:14:47.207Z,23.48
2024-03-07T03:15:49.363Z,20.25
2024-03-07T03:16:54.029Z,22.15
2024-03-07T03:17:56.297Z,23.85
2024-03-07T03:18:59.075Z,24.48
2024-03-07T03:20:04.563Z,22.92
2024-03-07T03:21:06.776Z,23.13
2024-03-07T03:22:11.532Z,24.30
2024-03-07T03:23:20.973Z,20.10
2024-03-07T03:24:26.942Z,20.33
2024-03-07T03:25:29.074Z,23.02
2024-03-07T03:26:34.099Z,20.00
2024-03-07T03:27:36.261Z,21.83
2024-03-07T03:28:42.728Z,20.48
2024-03-07T03:29:46.403Z,19.83
2024-03-07T03:30:49.778Z,25.35
2024-03-07T03:31:54.701Z,21.33
2024-03-07T03:32:56.970Z,23.38
2024-03-07T03:33:59.323Z,23.70
2024-03-07T03:35:04.440Z,25.08
2024-03-07T03:36:06.887Z,21.60
2024-03-07T03:37:12.722Z,19.77
2024-03-07T03:38:19.456Z,20.77
2024-03-07T03:39:24.811Z,18.80
2024-03-07T03:40:27.384Z,34.78
2024-03-07T03:41:33.368Z,21.05
2024-03-07T03:42:37.378Z,21.80
2024-03-07T03:43:42.415Z,20.52
2024-03-07T03:44:44.567Z,23.73
2024-03-07T03:45:49.454Z,18.90
2024-03-07T03:46:51.666Z,20.85
2024-03-07T03:47:57.688Z,21.17
2024-03-07T03:48:59.931Z,18.42
2024-03-07T03:50:04.688Z,22.17
2024-03-07T03:51:08.834Z,22.13
2024-03-07T03:52:13.637Z,17.48
2024-03-07T03:53:19.335Z,22.42
2024-03-07T03:54:24.128Z,17.75
2024-03-07T03:55:27.657Z,17.38
2024-03-07T03:56:33.462Z,21.58
2024-03-07T03:57:35.691Z,18.85
2024-03-07T03:58:40.420Z,18.10
2024-03-07T03:59:45.983Z,19.70
2024-03-07T04:00:50.800Z,17.88
2024-03-07T04:01:53.021Z,18.77
2024-03-07T04:02:57.925Z,21.33
2024-03-07T04:04:00.092Z,19.27
2024-03-07T04:05:05.043Z,19.15
2024-03-07T04:06:08.424Z,20.15
2024-03-07T04:07:13.451Z,17.40
2024-03-07T04:08:18.775Z,17.13
2024-03-07T04:09:24.824Z,19.25
2024-03-07T04:10:26.975Z,17.85
2024-03-07T04:11:31.766Z,18.00
2024-03-07T04:12:34.267Z,18.27
2024-03-07T04:13:39.686Z,16.92
2024-03-07T04:14:42.497Z,19.23
2024-03-07T04:15:47.221Z,17.98
2024-03-07T04:16:49.425Z,18.77
2024-03-07T04:17:54.434Z,18.90
2024-03-07T04:18:59.103Z,21.67
2024-03-07T04:20:04.290Z,22.13
2024-03-07T04:21:06.576Z,19.83
2024-03-07T04:22:12.215Z,20.38
2024-03-07T04:23:14.696Z,20.30
2024-03-07T04:24:22.084Z,17.02
2024-03-07T04:25:26.263Z,16.95
2024-03-07T04:26:31.063Z,20.17
2024-03-07T04:27:33.943Z,18.58
2024-03-07T04:28:38.787Z,18.02
2024-03-07T04:29:40.960Z,17.73
2024-03-07T04:30:46.624Z,16.90
2024-03-07T04:31:49.184Z,16.40
2024-03-07T04:32:53.971Z,16.92
2024-03-07T04:33:56.217Z,21.13
2024-03-07T04:35:02.098Z,19.38
2024-03-07T04:36:05.251Z,19.65
2024-03-07T04:37:10.632Z,18.67
2024-03-07T04:38:16.626Z,18.40
2024-03-07T04:39:33.678Z,18.20
2024-03-07T04:40:36.091Z,20.67
2024-03-07T04:41:41.203Z,16.88
2024-03-07T04:42:43.999Z,16.25
2024-03-07T04:43:48.744Z,17.42
2024-03-07T04:44:50.981Z,16.52
2024-03-07T04:45:53.218Z,16.92
2024-03-07T04:46:59.217Z,17.27
2024-03-07T04:48:01.673Z,19.13
2024-03-07T04:49:06.362Z,19.73
2024-03-07T04:50:12.054Z,18.77
2024-03-07T04:51:16.861Z,17.52
2024-03-07T04:52:18.931Z,18.58
2024-03-07T04:53:23.724Z,17.38
2024-03-07T04:54:30.058Z,17.65
2024-03-07T04:55:35.024Z,16.80
2024-03-07T04:56:37.159Z,18.70
2024-03-07T04:57:42.979Z,17.58
2024-03-07T04:58:46.089Z,19.30
2024-03-07T04:59:50.902Z,16.73
2024-03-07T05:00:53.171Z,17.83
2024-03-07T05:01:59.008Z,17.40
2024-03-07T05:03:01.178Z,21.33
2024-03-07T05:04:04.493Z,20.45
2024-03-07T05:05:09.568Z,19.48
2024-03-07T05:06:11.696Z,20.20
2024-03-07T05:07:16.466Z,17.33
2024-03-07T05:08:18.623Z,17.90
2024-03-07T05:09:27.616Z,17.27
2024-03-07T05:10:32.810Z,17.98
2024-03-07T05:11:38.567Z,18.48
2024-03-07T05:12:40.725Z,20.00
2024-03-07T05:13:45.560Z,18.02
2024-03-07T05:14:47.791Z,18.42
2024-03-07T05:15:52.017Z,17.45
2024-03-07T05:17:06.591Z,18.92
2024-03-07T05:18:09.518Z,21.77
2024-03-07T05:19:15.374Z,19.40
2024-03-07T05:20:17.655Z,19.30
2024-03-07T05:21:39.597Z,16.95
2024-03-07T05:23:47.137Z,16.92
2024-03-07T05:24:51.402Z,17.33
2024-03-07T05:25:58.777Z,19.27
2024-03-07T05:27:01.229Z,19.77
2024-03-07T05:28:06.685Z,20.90
2024-03-07T05:29:10.676Z,19.85
2024-03-07T05:30:17.104Z,18.98
2024-03-07T05:31:22.202Z,16.42
2024-03-07T05:32:26.906Z,18.85
2024-03-07T05:33:32.010Z,17.83
2024-03-07T05:34:35.286Z,16.55
2024-03-07T05:35:45.010Z,17.38
2024-03-07T05:36:48.004Z,17.95
2024-03-07T05:37:53.685Z,17.63
2024-03-07T05:38:55.934Z,18.05
2024-03-07T05:40:01.315Z,18.85
2024-03-07T05:41:06.237Z,19.98
2024-03-07T05:42:15.329Z,20.35
2024-03-07T05:43:17.603Z,19.65
2024-03-07T05:44:23.809Z,18.95
2024-03-07T05:45:25.976Z,17.45
2024-03-07T05:46:30.723Z,17.05
2024-03-07T05:47:33.116Z,19.67
2024-03-07T05:48:37.999Z,18.10
2024-03-07T05:49:40.286Z,19.85
2024-03-07T05:50:47.356Z,20.17
2024-03-07T05:51:52.223Z,19.52
2024-03-07T05:52:56.965Z,18.75
2024-03-07T05:53:59.257Z,19.13
2024-03-07T05:55:04.023Z,20.90
2024-03-07T05:56:09.474Z,21.58
2024-03-07T05:57:14.568Z,20.88
2024-03-07T05:58:17.320Z,19.20
2024-03-07T05:59:19.564Z,20.25
2024-03-07T06:00:29.221Z,19.98
2024-03-07T06:01:34.154Z,18.02
2024-03-07T06:02:38.895Z,18.70
2024-03-07T06:03:41.565Z,20.15
2024-03-07T06:04:47.191Z,18.30
2024-03-07T06:05:49.812Z,20.05
2024-03-07T06:06:55.308Z,19.35
2024-03-07T06:07:57.991Z,17.42
2024-03-07T06:09:00.340Z,18.08
2024-03-07T06:10:07.801Z,18.98
2024-03-07T06:11:14.609Z,19.90
2024-03-07T06:12:27.138Z,18.95
2024-03-07T06:13:30.308Z,20.30
2024-03-07T06:14:35.202Z,20.48
2024-03-07T06:15:39.540Z,17.63
2024-03-07T06:16:46.475Z,17.80
2024-03-07T06:17:48.670Z,20.63
2024-03-07T06:18:53.477Z,17.73
2024-03-07T06:19:55.613Z,17.60
2024-03-07T06:20:57.790Z,19.73
2024-03-07T06:22:02.550Z,18.35
2024-03-07T06:23:06.575Z,20.52
2024-03-07T06:24:13.444Z,21.30
2024-03-07T06:25:20.490Z,18.95
2024-03-07T06:26:38.470Z,18.58
2024-03-07T06:27:49.899Z,20.27
2024-03-07T06:28:52.021Z,17.88
2024-03-07T06:29:57.029Z,20.08
2024-03-07T06:30:59.837Z,19.30
2024-03-07T06:32:07.774Z,22.63
2024-03-07T06:33:10.397Z,18.98
2024-03-07T06:34:15.292Z,19.92
2024-03-07T06:35:17.631Z,20.60
2024-03-07T06:36:23.226Z,18.38
2024-03-07T06:37:25.348Z,18.08
2024-03-07T06:38:31.088Z,21.50
2024-03-07T06:39:33.258Z,20.15
2024-03-07T06:40:38.497Z,20.75
2024-03-07T06:41:43.720Z,18.90
2024-03-07T06:42:48.494Z,19.25
2024-03-07T06:43:51.212Z,18.55
2024-03-07T06:44:56.008Z,22.88
2024-03-07T06:45:58.270Z,19.27
2024-03-07T06:47:04.354Z,17.40
2024-03-07T06:48:08.425Z,22.95
2024-03-07T06:49:13.294Z,19.58
2024-03-07T06:50:27.451Z,20.85
2024-03-07T06:51:37.831Z,19.42
2024-03-07T06:52:39.978Z,20.27
2024-03-07T06:53:44.796Z,18.17
2024-03-07T06:54:47.116Z,20.75
2024-03-07T06:55:50.336Z,21.98
2024-03-07T06:56:57.833Z,19.33
2024-03-07T06:58:00.016Z,19.88
2024-03-07T06:59:06.324Z,21.98
2024-03-07T07:00:12.426Z,20.05
2024-03-07T07:01:17.721Z,22.98
2024-03-07T07:02:20.039Z,23.05
2024-03-07T07:03:25.285Z,20.85
2024-03-07T07:04:40.096Z,20.67
2024-03-07T07:05:46.097Z,19.92
2024-03-07T07:06:48.260Z,19.88
2024-03-07T07:07:53.206Z,19.65
2024-03-07T07:08:55.356Z,18.42
2024-03-07T07:10:00.241Z,20.92
2024-03-07T07:11:02.401Z,19.60
2024-03-07T07:12:10.537Z,20.98
2024-03-07T07:13:14.512Z,20.88
2024-03-07T07:14:22.081Z,20.42
2024-03-07T07:15:24.321Z,21.17
2024-03-07T07:16:31.191Z,20.23
2024-03-07T07:17:33.549Z,20.33
2024-03-07T07:18:39.944Z,20.15
2024-03-07T07:19:42.264Z,22.90
2024-03-07T07:20:50.593Z,19.05
2024-03-07T07:21:54.957Z,20.33
2024-03-07T07:23:02.113Z,19.17
2024-03-07T07:24:04.945Z,21.17
2024-03-07T07:25:14.566Z,21.35
2024-03-07T07:26:16.840Z,22.02
2024-03-07T07:27:22.857Z,22.85
2024-03-07T07:28:28.306Z,19.13
2024-03-07T07:29:30.875Z,21.50
2024-03-07T07:30:35.767Z,21.15
2024-03-07T07:31:37.918Z,23.13
2024-03-07T07:32:44.299Z,22.48
2024-03-07T07:33:47.274Z,22.52
2024-03-07T07:34:52.767Z,22.90
2024-03-07T07:35:54.914Z,23.17
2024-03-07T07:36:59.662Z,21.83
2024-03-07T07:38:03.275Z,21.35
2024-03-07T07:39:08.011Z,27.20
2024-03-07T07:40:14.405Z,35.13
2024-03-07T07:41:19.102Z,23.60
2024-03-07T07:42:23.804Z,28.08
2024-03-07T07:43:41.529Z,22.23
2024-03-07T07:44:45.527Z,21.30
2024-03-07T07:45:50.746Z,21.38
2024-03-07T07:46:52.871Z,21.63
2024-03-07T07:47:57.900Z,22.58
2024-03-07T07:49:00.121Z,22.35
2024-03-07T07:50:08.353Z,20.13
2024-03-07T07:51:10.595Z,22.02
2024-03-07T07:52:17.469Z,21.17
2024-03-07T07:53:19.712Z,23.13
2024-03-07T07:54:26.003Z,23.50
2024-03-07T07:55:29.069Z,22.42
2024-03-07T07:56:33.921Z,24.35
2024-03-07T07:57:39.997Z,20.75
2024-03-07T07:58:45.424Z,21.42
2024-03-07T07:59:47.596Z,22.38
2024-03-07T08:00:52.368Z,20.35
2024-03-07T08:01:56.893Z,20.15
2024-03-07T08:03:03.313Z,23.40
2024-03-07T08:04:05.810Z,21.63
2024-03-07T08:05:10.288Z,21.85
2024-03-07T08:06:15.345Z,23.88
2024-03-07T08:07:17.684Z,25.42
2024-03-07T08:08:23.434Z,20.30
2024-03-07T08:09:25.954Z,20.67
2024-03-07T08:10:32.446Z,22.17
2024-03-07T08:11:34.706Z,20.55
2024-03-07T08:12:40.213Z,20.15
2024-03-07T08:13:45.207Z,22.23
2024-03-07T08:14:47.474Z,20.55
2024-03-07T08:15:55.223Z,22.25
2024-03-07T08:16:57.666Z,21.48
2024-03-07T08:18:03.491Z,21.73
2024-03-07T08:19:06.059Z,21.30
2024-03-07T08:20:12.789Z,22.48
2024-03-07T08:21:17.482Z,22.73
2024-03-07T08:22:20.740Z,22.45
2024-03-07T08:23:26.772Z,25.02
2024-03-07T08:24:29.490Z,21.75
2024-03-07T08:25:34.283Z,25.27
2024-03-07T08:26:36.449Z,22.83
2024-03-07T08:27:46.048Z,23.80
2024-03-07T08:28:48.306Z,23.75
2024-03-07T08:29:53.137Z,22.77
2024-03-07T08:30:56.105Z,27.60
2024-03-07T08:32:00.915Z,24.27
2024-03-07T08:33:04.814Z,26.67
2024-03-07T08:34:09.662Z,26.52
2024-03-07T08:35:12.946Z,23.67
2024-03-07T08:36:17.737Z,31.17
2024-03-07T08:37:20.068Z,53.80
2024-03-07T08:38:24.901Z,30.40
2024-03-07T08:39:27.411Z,33.00
2024-03-07T08:40:34.502Z,32.13
2024-03-07T08:41:42.294Z,28.08
2024-03-07T08:42:51.510Z,27.35
2024-03-07T08:43:53.723Z,29.52
2024-03-07T08:44:55.980Z,34.33
2024-03-07T08:46:01.092Z,25.10
2024-03-07T08:47:03.267Z,22.67
2024-03-07T08:48:10.826Z,24.23
2024-03-07T08:49:15.878Z,168.13
2024-03-07T08:50:21.857Z,48.00
2024-03-07T08:51:24.440Z,21.73
2024-03-07T08:52:26.727Z,21.92
2024-03-07T08:53:31.673Z,21.88
2024-03-07T08:54:34.885Z,243.75
2024-03-07T08:55:39.639Z,18.70
2024-03-07T08:56:42.588Z,18.85
2024-03-07T08:57:50.626Z,68.50
2024-03-07T08:58:52.901Z,19.45
2024-03-07T08:59:57.939Z,575.72
2024-03-07T09:01:00.664Z,589.60
2024-03-07T09:02:06.886Z,717.03
2024-03-07T09:03:12.586Z,550.10
2024-03-07T09:04:19.241Z,18.92
2024-03-07T09:05:23.744Z,19.27
2024-03-07T09:06:29.127Z,16.27
2024-03-07T09:07:31.348Z,16.30
2024-03-07T09:08:36.107Z,16.38
2024-03-07T09:09:38.284Z,17.05
2024-03-07T09:10:43.684Z,18.08
2024-03-07T09:11:46.158Z,55.05
2024-03-07T09:12:53.440Z,20.02
2024-03-07T09:13:58.588Z,18.90
2024-03-07T09:15:03.777Z,16.65
2024-03-07T09:16:08.964Z,28.92
2024-03-07T09:17:11.087Z,19.85
2024-03-07T09:18:16.193Z,20.60
2024-03-07T09:19:21.566Z,20.52
2024-03-07T09:20:26.448Z,19.88
2024-03-07T09:21:28.611Z,16.67
2024-03-07T09:22:34.037Z,23.30
2024-03-07T09:23:36.328Z,15.27
2024-03-07T09:24:41.292Z,18.25
2024-03-07T09:25:44.271Z,25.02
2024-03-07T09:26:46.832Z,17.35
2024-03-07T09:27:55.940Z,16.95
2024-03-07T09:28:58.484Z,15.27
2024-03-07T09:30:03.325Z,14.98
2024-03-07T09:31:05.550Z,17.83
2024-03-07T09:32:10.795Z,17.27
2024-03-07T09:33:13.359Z,18.55
2024-03-07T09:34:18.239Z,19.77
2024-03-07T09:35:20.763Z,16.70
2024-03-07T09:36:25.568Z,18.17
2024-03-07T09:37:27.965Z,17.98
2024-03-07T09:38:32.752Z,15.13
2024-03-07T09:39:36.321Z,15.65
2024-03-07T09:40:38.970Z,16.05
2024-03-07T09:41:43.744Z,14.75
2024-03-07T09:42:49.796Z,14.45
2024-03-07T09:44:00.108Z,15.60
2024-03-07T09:45:04.566Z,14.88
2024-03-07T09:46:11.384Z,17.27
2024-03-07T09:47:15.315Z,31.23
2024-03-07T09:48:21.165Z,28.45
2024-03-07T09:49:24.109Z,15.80
2024-03-07T09:50:29.315Z,17.23
2024-03-07T09:51:34.719Z,15.20
2024-03-07T09:52:37.534Z,17.23
2024-03-07T09:53:45.070Z,17.15
2024-03-07T09:54:47.339Z,17.60
2024-03-07T09:55:52.256Z,17.40
2024-03-07T09:56:55.945Z,15.55
2024-03-07T09:58:04.874Z,14.20
2024-03-07T09:59:14.628Z,16.00
2024-03-07T10:00:28.401Z,17.75
2024-03-07T10:01:35.291Z,14.60
2024-03-07T10:02:43.536Z,18.73
2024-03-07T10:03:48.541Z,17.10
2024-03-07T10:04:55.293Z,15.35
2024-03-07T10:05:57.551Z,14.43
2024-03-07T10:07:02.947Z,16.63
2024-03-07T10:08:07.002Z,16.38
2024-03-07T10:09:14.500Z,16.25
2024-03-07T10:10:17.403Z,19.52
2024-03-07T10:11:22.308Z,18.60
2024-03-07T10:12:24.684Z,19.17
2024-03-07T10:13:32.918Z,19.13
2024-03-07T10:14:38.755Z,19.13
2024-03-07T10:15:44.656Z,16.60
2024-03-07T10:16:48.033Z,16.88
2024-03-07T10:17:52.937Z,19.48
2024-03-07T10:18:55.235Z,17.92
2024-03-07T10:20:02.343Z,16.13
2024-03-07T10:21:05.541Z,15.77
2024-03-07T10:22:10.572Z,16.05
2024-03-07T10:23:12.924Z,19.08
2024-03-07T10:24:19.167Z,18.63
2024-03-07T10:25:23.623Z,19.08
2024-03-07T10:26:28.454Z,20.23
2024-03-07T10:27:31.053Z,18.25
2024-03-07T10:28:36.238Z,24.92
2024-03-07T10:29:41.174Z,21.42
2024-03-07T10:30:46.877Z,17.65
2024-03-07T10:31:57.468Z,18.92
2024-03-07T10:33:08.810Z,17.58
2024-03-07T10:34:11.079Z,33.17
2024-03-07T10:35:15.532Z,16.35
2024-03-07T10:36:20.675Z,19.00
2024-03-07T10:37:22.763Z,17.77
2024-03-07T10:38:27.546Z,20.42
2024-03-07T10:39:29.680Z,16.98
2024-03-07T10:40:34.446Z,15.13
2024-03-07T10:41:38.147Z,18.17
2024-03-07T10:42:46.914Z,16.42
2024-03-07T10:43:54.812Z,17.13
2024-03-07T10:45:12.165Z,17.52
2024-03-07T10:46:15.857Z,18.55
2024-03-07T10:47:22.540Z,18.40
2024-03-07T10:48:31.079Z,20.38
2024-03-07T10:49:40.727Z,15.68
2024-03-07T10:50:56.781Z,19.35
2024-03-07T10:52:07.711Z,15.57
2024-03-07T10:53:17.144Z,15.32
2024-03-07T10:54:32.062Z,18.92
2024-03-07T10:55:40.399Z,17.23
2024-03-07T10:56:59.281Z,17.60
2024-03-07T10:58:07.705Z,20.65
2024-03-07T10:59:20.812Z,18.60
2024-03-07T11:00:31.760Z,19.23
2024-03-07T11:01:40.291Z,17.45
2024-03-07T11:02:52.357Z,16.00
2024-03-07T11:03:58.787Z,17.33
2024-03-07T11:05:01.505Z,17.27
2024-03-07T11:06:08.276Z,16.63
2024-03-07T11:07:12.372Z,15.02
2024-03-07T11:08:18.218Z,17.75
2024-03-07T11:09:24.733Z,21.67
2024-03-07T11:10:30.728Z,22.55
2024-03-07T11:11:33.905Z,14.20
2024-03-07T11:12:40.721Z,19.30
2024-03-07T11:13:43.551Z,18.88
2024-03-07T11:14:47.847Z,19.08
2024-03-07T11:15:58.916Z,16.65
2024-03-07T11:17:02.238Z,19.48
2024-03-07T11:18:09.642Z,18.83
2024-03-07T11:19:27.644Z,17.38
2024-03-07T11:20:39.279Z,21.20
2024-03-07T11:22:47.226Z,15.35
2024-03-07T11:23:52.052Z,16.23
2024-03-07T11:25:02.055Z,15.55
2024-03-07T11:26:09.213Z,17.20
2024-03-07T11:27:15.250Z,18.73
2024-03-07T11:28:21.777Z,17.30
2024-03-07T11:29:55.097Z,22.13
2024-03-07T11:31:11.635Z,17.38
2024-03-07T11:32:18.049Z,15.25
2024-03-07T11:33:22.113Z,20.05
2024-03-07T11:34:33.952Z,19.13
2024-03-07T11:35:37.250Z,16.75
2024-03-07T11:36:46.533Z,16.00
2024-03-07T11:37:53.333Z,14.95
2024-03-07T11:38:55.511Z,15.48
2024-03-07T11:40:09.299Z,16.00
2024-03-07T11:41:14.863Z,16.02
2024-03-07T11:42:31.831Z,16.77
2024-03-07T11:43:34.420Z,15.50
2024-03-07T11:44:41.328Z,15.27
2024-03-07T11:45:46.856Z,16.70
2024-03-07T11:46:54.778Z,16.45
2024-03-07T11:48:02.144Z,14.57
2024-03-07T11:49:11.448Z,18.35
2024-03-07T11:50:14.013Z,17.63
2024-03-07T11:51:26.595Z,18.65
2024-03-07T11:52:29.321Z,21.70
2024-03-07T11:53:36.662Z,21.65
2024-03-07T11:54:41.499Z,16.55
2024-03-07T11:55:47.635Z,17.08
2024-03-07T11:56:52.950Z,15.68
2024-03-07T11:57:58.163Z,18.92
2024-03-07T11:59:01.065Z,18.55
2024-03-07T12:00:12.165Z,20.33
2024-03-07T12:01:15.425Z,20.77
2024-03-07T12:02:25.192Z,21.25
2024-03-07T12:03:28.912Z,19.67
2024-03-07T12:04:36.161Z,20.20
2024-03-07T12:05:40.754Z,15.23
2024-03-07T12:06:54.579Z,19.45
2024-03-07T12:07:58.439Z,18.58
2024-03-07T12:09:04.067Z,18.02
2024-03-07T12:10:08.197Z,19.38
2024-03-07T12:11:17.226Z,20.10
2024-03-07T12:12:19.615Z,19.95
2024-03-07T12:13:26.242Z,22.42
2024-03-07T12:14:29.143Z,21.52
2024-03-07T12:15:34.905Z,22.52
2024-03-07T12:16:37.235Z,19.27
2024-03-07T12:17:42.868Z,19.48
2024-03-07T12:18:48.457Z,20.00
2024-03-07T12:19:52.578Z,19.63
2024-03-07T12:21:00.309Z,18.15
2024-03-07T12:22:03.428Z,20.33
2024-03-07T12:23:09.906Z,17.27
2024-03-07T12:24:16.535Z,18.38
2024-03-07T12:25:23.121Z,17.75
2024-03-07T12:26:31.466Z,23.73
2024-03-07T12:27:34.447Z,25.77
2024-03-07T12:28:40.434Z,20.63
2024-03-07T12:29:43.844Z,18.08
2024-03-07T12:30:53.750Z,17.27
2024-03-07T12:31:56.584Z,16.75
2024-03-07T12:33:05.471Z,20.63
2024-03-07T12:34:10.471Z,17.98
2024-03-07T12:35:14.172Z,17.27
2024-03-07T12:36:19.155Z,17.90
2024-03-07T12:37:29.361Z,18.23
2024-03-07T12:38:37.452Z,18.70
2024-03-07T12:39:47.772Z,20.15
2024-03-07T12:41:08.734Z,17.27
2024-03-07T12:42:12.998Z,18.20
2024-03-07T12:43:20.004Z,19.40
2024-03-07T12:44:23.111Z,21.77
2024-03-07T12:45:29.770Z,19.42
2024-03-07T12:46:32.402Z,17.25
2024-03-07T12:47:38.930Z,21.85
2024-03-07T12:48:47.157Z,15.82
2024-03-07T12:49:52.711Z,16.65
2024-03-07T12:50:55.333Z,17.38
2024-03-07T12:52:00.709Z,16.98
2024-03-07T12:53:07.228Z,16.48
2024-03-07T12:54:13.370Z,17.52
2024-03-07T12:55:19.529Z,17.60
2024-03-07T12:56:24.664Z,17.55
2024-03-07T12:57:26.827Z,20.45
2024-03-07T12:58:32.228Z,20.85
2024-03-07T12:59:34.521Z,21.90
2024-03-07T13:00:39.710Z,18.33
2024-03-07T13:01:46.494Z,18.65
2024-03-07T13:02:51.531Z,19.25
2024-03-07T13:03:56.358Z,19.05
2024-03-07T13:05:02.256Z,23.40
2024-03-07T13:06:06.383Z,20.48
2024-03-07T13:07:11.631Z,19.90
2024-03-07T13:08:13.916Z,20.67
2024-03-07T13:09:28.097Z,18.00
2024-03-07T13:10:31.014Z,20.13
2024-03-07T13:11:36.442Z,20.23
2024-03-07T13:12:42.954Z,22.85
2024-03-07T13:13:48.451Z,20.10
2024-03-07T13:14:50.653Z,19.77
2024-03-07T13:15:56.539Z,22.52
2024-03-07T13:17:01.924Z,759.83
2024-03-07T13:18:06.448Z,747.30
2024-03-07T13:19:15.940Z,751.90
2024-03-07T13:20:23.277Z,776.28
2024-03-07T13:21:28.581Z,41.33
2024-03-07T13:22:33.262Z,22.30
2024-03-07T13:23:41.729Z,17.33
2024-03-07T13:24:45.833Z,16.15
2024-03-07T13:25:51.110Z,15.80
2024-03-07T13:26:53.722Z,15.63
2024-03-07T13:28:04.080Z,15.20
2024-03-07T13:29:06.339Z,15.10
2024-03-07T13:30:09.845Z,14.88
2024-03-07T13:31:18.526Z,15.90
2024-03-07T13:32:20.862Z,15.40
2024-03-07T13:33:26.634Z,19.48
2024-03-07T13:34:31.801Z,19.70
2024-03-07T13:35:37.463Z,17.52
2024-03-07T13:36:39.674Z,17.38
2024-03-07T13:37:41.825Z,16.10
2024-03-07T13:38:46.819Z,16.25
2024-03-07T13:39:48.992Z,16.05
2024-03-07T13:40:54.287Z,17.30
2024-03-07T13:41:56.549Z,15.95
2024-03-07T13:43:03.046Z,15.35
2024-03-07T13:44:05.652Z,21.90
2024-03-07T13:45:12.680Z,15.95
2024-03-07T13:46:19.309Z,14.63
2024-03-07T13:47:21.896Z,16.58
2024-03-07T13:48:26.697Z,14.40
2024-03-07T13:49:31.527Z,18.98
2024-03-07T13:50:50.594Z,17.70
2024-03-07T13:52:05.295Z,15.75
2024-03-07T13:53:20.310Z,15.05
2024-03-07T13:54:29.900Z,18.52
2024-03-07T13:55:37.872Z,17.75
2024-03-07T13:56:48.148Z,16.48
2024-03-07T13:58:00.892Z,15.15
2024-03-07T13:59:32.088Z,16.08
2024-03-07T14:00:49.266Z,18.88
2024-03-07T14:02:11.296Z,15.52